createdAt,value
2023-01-19T00:01:52.607Z,59.40
2023-01-19T00:04:23.224Z,58.97
2023-01-19T00:06:53.796Z,59.08
2023-01-19T00:09:24.693Z,59.23
2023-01-19T00:11:55.880Z,59.42
2023-01-19T00:14:26.650Z,56.50
2023-01-19T00:16:57.718Z,56.25
2023-01-19T00:19:28.482Z,56.00
2023-01-19T00:21:59.172Z,55.94
2023-01-19T00:24:29.794Z,56.22
2023-01-19T00:27:00.309Z,56.78
2023-01-19T00:29:34.943Z,57.91
2023-01-19T00:32:06.909Z,58.83
2023-01-19T00:34:50.823Z,59.04
2023-01-19T00:37:22.083Z,59.27
2023-01-19T00:39:52.720Z,58.92
2023-01-19T00:42:41.106Z,58.45
2023-01-19T00:45:13.715Z,58.54
2023-01-19T00:47:44.343Z,58.54
2023-01-19T00:50:15.770Z,58.35
2023-01-19T00:52:47.343Z,58.26
2023-01-19T00:55:18.617Z,58.50
2023-01-19T00:57:49.320Z,58.50
2023-01-19T01:00:21.404Z,58.38
2023-01-19T01:02:52.847Z,58.80
2023-01-19T01:05:24.029Z,58.49
2023-01-19T01:07:54.584Z,58.62
2023-01-19T01:10:26.630Z,58.73
2023-01-19T01:13:21.996Z,58.68
2023-01-19T01:15:52.469Z,58.65
2023-01-19T01:18:23.674Z,58.58
2023-01-19T01:20:56.202Z,58.87
2023-01-19T01:23:26.881Z,58.54
2023-01-19T01:25:57.669Z,57.95
2023-01-19T01:28:28.361Z,57.90
2023-01-19T01:30:59.006Z,57.68
2023-01-19T01:33:39.841Z,57.55
2023-01-19T01:36:13.129Z,57.38
2023-01-19T01:38:44.086Z,56.48
2023-01-19T01:41:14.749Z,55.11
2023-01-19T01:43:50.005Z,55.78
2023-01-19T01:46:21.361Z,56.29
2023-01-19T01:48:55.804Z,56.73
2023-01-19T01:51:29.924Z,56.64
2023-01-19T01:54:10.306Z,56.97
2023-01-19T01:56:48.804Z,57.37
2023-01-19T01:59:30.954Z,58.28
2023-01-19T02:02:22.256Z,58.96
2023-01-19T02:04:54.213Z,59.45
2023-01-19T02:07:47.906Z,59.84
2023-01-19T02:10:36.545Z,57.85
2023-01-19T02:13:23.073Z,57.29
2023-01-19T02:15:54.932Z,55.95
2023-01-19T02:18:26.980Z,55.98
2023-01-19T02:21:14.991Z,56.00
2023-01-19T02:23:50.784Z,55.97
2023-01-19T02:26:23.101Z,56.32
2023-01-19T02:29:04.871Z,55.81
2023-01-19T02:31:36.948Z,55.60
2023-01-19T02:34:08.396Z,55.59
2023-01-19T02:36:45.067Z,55.51
2023-01-19T02:39:17.436Z,55.82
2023-01-19T02:41:59.158Z,55.68
2023-01-19T02:44:29.572Z,56.11
2023-01-19T02:46:59.995Z,57.19
2023-01-19T02:49:33.642Z,58.77
2023-01-19T02:52:04.344Z,60.34
2023-01-19T02:54:40.543Z,61.07
2023-01-19T02:57:29.179Z,61.51
2023-01-19T03:00:25.465Z,62.60
2023-01-19T03:03:08.090Z,62.76
2023-01-19T03:05:47.948Z,64.13
2023-01-19T03:08:24.405Z,63.56
2023-01-19T03:11:05.794Z,62.98
2023-01-19T03:13:43.326Z,63.08
2023-01-19T03:16:18.274Z,62.67
2023-01-19T03:18:54.135Z,63.13
2023-01-19T03:21:27.577Z,62.90
2023-01-19T03:24:00.521Z,63.40
2023-01-19T03:26:33.523Z,63.40
2023-01-19T03:29:05.432Z,62.78
2023-01-19T03:31:36.874Z,62.37
2023-01-19T03:34:12.627Z,60.83
2023-01-19T03:36:47.416Z,61.01
2023-01-19T03:39:21.036Z,59.78
2023-01-19T03:41:54.078Z,60.07
2023-01-19T03:44:26.562Z,57.35
2023-01-19T03:46:58.597Z,58.42
2023-01-19T03:49:29.956Z,58.26
2023-01-19T03:52:01.174Z,58.73
2023-01-19T03:54:31.693Z,58.85
2023-01-19T03:57:02.063Z,58.18
2023-01-19T03:59:32.490Z,58.79
2023-01-19T04:02:03.094Z,56.71
2023-01-19T04:04:34.102Z,57.22
2023-01-19T04:07:05.325Z,57.68
2023-01-19T04:09:35.719Z,58.37
2023-01-19T04:12:06.250Z,58.73
2023-01-19T04:14:37.011Z,58.84
2023-01-19T04:17:07.403Z,58.81
2023-01-19T04:19:38.566Z,59.63
2023-01-19T04:22:08.988Z,59.37
2023-01-19T04:24:39.743Z,60.04
2023-01-19T04:27:10.141Z,60.13
2023-01-19T04:29:41.096Z,59.86
2023-01-19T04:32:11.412Z,60.35
2023-01-19T04:34:41.876Z,60.15
2023-01-19T04:37:12.412Z,60.87
2023-01-19T04:39:43.291Z,61.01
2023-01-19T04:42:14.431Z,61.29
2023-01-19T04:44:44.987Z,60.96
2023-01-19T04:47:15.772Z,61.63
2023-01-19T04:49:46.301Z,61.86
2023-01-19T04:52:17.060Z,62.27
2023-01-19T04:54:47.501Z,62.56
2023-01-19T04:57:18.026Z,63.39
2023-01-19T04:59:48.423Z,63.10
2023-01-19T05:02:19.305Z,62.38
2023-01-19T05:04:50.036Z,62.13
2023-01-19T05:07:20.783Z,62.27
2023-01-19T05:09:51.379Z,62.07
2023-01-19T05:12:22.027Z,61.52
2023-01-19T05:14:52.443Z,61.29
2023-01-19T05:17:22.761Z,61.42
2023-01-19T05:19:53.290Z,61.42
2023-01-19T05:22:23.619Z,60.91
2023-01-19T05:24:54.049Z,60.98
2023-01-19T05:27:24.356Z,60.57
2023-01-19T05:29:54.957Z,60.79
2023-01-19T05:32:25.692Z,61.08
2023-01-19T05:34:56.087Z,62.22
2023-01-19T05:37:26.658Z,62.62
2023-01-19T05:39:57.240Z,62.29
2023-01-19T05:42:27.997Z,62.08
2023-01-19T05:44:58.603Z,61.18
2023-01-19T05:47:31.055Z,60.41
2023-01-19T05:50:01.519Z,59.47
2023-01-19T05:52:32.185Z,60.50
2023-01-19T05:55:02.587Z,60.74
2023-01-19T05:57:33.134Z,60.21
2023-01-19T06:00:05.414Z,60.13
2023-01-19T06:02:39.032Z,60.37
2023-01-19T06:05:09.578Z,60.11
2023-01-19T06:07:40.577Z,60.47
2023-01-19T06:10:11.412Z,60.79
2023-01-19T06:12:44.807Z,61.34
2023-01-19T06:15:15.861Z,61.77
2023-01-19T06:17:46.258Z,62.44
2023-01-19T06:20:17.323Z,62.14
2023-01-19T06:22:47.750Z,62.62
2023-01-19T06:25:18.274Z,62.47
2023-01-19T06:27:48.754Z,62.83
2023-01-19T06:30:19.509Z,62.47
2023-01-19T06:32:49.880Z,63.02
2023-01-19T06:35:20.562Z,62.33
2023-01-19T06:37:51.106Z,62.46
2023-01-19T06:40:21.923Z,62.63
2023-01-19T06:42:52.461Z,62.85
2023-01-19T06:45:22.846Z,62.34
2023-01-19T06:47:53.134Z,62.96
2023-01-19T06:50:23.652Z,62.40
2023-01-19T06:52:54.216Z,62.74
2023-01-19T06:55:24.931Z,62.51
2023-01-19T06:58:01.584Z,62.54
2023-01-19T07:00:33.247Z,62.71
2023-01-19T07:03:04.451Z,62.32
2023-01-19T07:05:37.212Z,62.20
2023-01-19T07:08:08.563Z,62.87
2023-01-19T07:11:25.650Z,62.60
2023-01-19T07:13:30.073Z,62.23
2023-01-19T07:16:00.745Z,62.74
2023-01-19T07:18:31.281Z,62.39
2023-01-19T07:21:02.265Z,62.26
2023-01-19T07:23:33.279Z,62.40
2023-01-19T07:26:04.572Z,62.58
2023-01-19T07:28:35.092Z,62.59
2023-01-19T07:31:05.680Z,62.01
2023-01-19T07:33:36.204Z,62.50
2023-01-19T07:36:06.562Z,62.35
2023-01-19T07:38:37.076Z,62.56
2023-01-19T07:41:08.689Z,62.51
2023-01-19T07:43:39.305Z,62.52
2023-01-19T07:46:10.378Z,61.95
2023-01-19T07:48:41.022Z,61.85
2023-01-19T07:51:13.369Z,62.13
2023-01-19T07:53:43.830Z,62.52
2023-01-19T07:56:14.492Z,62.11
2023-01-19T07:58:45.001Z,61.93
2023-01-19T08:01:16.006Z,62.25
2023-01-19T08:03:47.980Z,61.81
2023-01-19T08:06:23.496Z,61.96
2023-01-19T08:08:54.837Z,62.31
2023-01-19T08:11:25.169Z,62.22
2023-01-19T08:13:55.576Z,62.18
2023-01-19T08:16:26.198Z,62.41
2023-01-19T08:18:56.739Z,62.07
2023-01-19T08:21:27.488Z,61.82
2023-01-19T08:23:58.934Z,61.78
2023-01-19T08:26:33.917Z,61.48
2023-01-19T08:29:05.933Z,60.55
2023-01-19T08:31:36.540Z,60.72
2023-01-19T08:34:07.340Z,60.54
2023-01-19T08:36:38.255Z,60.19
2023-01-19T08:39:09.211Z,59.87
2023-01-19T08:41:40.136Z,59.88
2023-01-19T08:44:10.540Z,60.31
2023-01-19T08:46:40.984Z,59.24
2023-01-19T08:49:11.689Z,58.10
2023-01-19T08:51:42.218Z,56.96
2023-01-19T08:54:13.212Z,57.25
2023-01-19T08:56:43.658Z,57.44
2023-01-19T08:59:14.395Z,57.56
2023-01-19T09:01:46.114Z,57.67
2023-01-19T09:04:16.618Z,58.38
2023-01-19T09:06:47.568Z,58.13
2023-01-19T09:09:18.541Z,58.18
2023-01-19T09:11:48.885Z,58.44
2023-01-19T09:14:19.511Z,58.80
2023-01-19T09:16:50.406Z,58.88
2023-01-19T09:19:20.806Z,59.45
2023-01-19T09:21:52.183Z,60.02
2023-01-19T09:24:22.858Z,60.41
2023-01-19T09:26:53.498Z,60.47
2023-01-19T09:29:24.215Z,59.49
2023-01-19T09:31:54.641Z,58.72
2023-01-19T09:34:27.146Z,58.68
2023-01-19T09:36:57.452Z,58.95
2023-01-19T09:39:28.580Z,58.35
2023-01-19T09:42:05.023Z,59.46
2023-01-19T09:44:37.296Z,60.47
2023-01-19T09:47:16.199Z,60.03
2023-01-19T09:49:50.467Z,60.27
2023-01-19T09:52:21.896Z,60.08
2023-01-19T09:54:56.720Z,59.43
2023-01-19T09:57:28.655Z,60.14
2023-01-19T10:00:00.824Z,59.57
2023-01-19T10:02:38.092Z,60.90
2023-01-19T10:05:27.479Z,61.69
2023-01-19T10:08:07.523Z,62.39
2023-01-19T10:10:42.458Z,63.03
2023-01-19T10:13:15.722Z,62.98
2023-01-19T10:15:51.523Z,63.24
2023-01-19T10:18:27.027Z,64.19
2023-01-19T10:21:05.368Z,64.77
2023-01-19T10:23:51.214Z,65.27
2023-01-19T10:26:22.412Z,65.33
2023-01-19T10:28:57.749Z,66.06
2023-01-19T10:31:28.822Z,66.36
2023-01-19T10:33:59.869Z,65.39
2023-01-19T10:36:38.002Z,64.93
2023-01-19T10:39:09.957Z,64.42
2023-01-19T10:41:49.587Z,63.87
2023-01-19T10:44:30.519Z,63.70
2023-01-19T10:47:02.479Z,63.40
2023-01-19T10:49:46.135Z,63.41
2023-01-19T10:52:34.891Z,63.41
2023-01-19T10:55:07.124Z,63.16
2023-01-19T10:57:39.684Z,63.27
2023-01-19T11:00:29.983Z,63.28
2023-01-19T11:03:00.667Z,63.09
2023-01-19T11:05:32.744Z,63.12
2023-01-19T11:08:03.133Z,62.53
2023-01-19T11:10:34.688Z,63.38
2023-01-19T11:13:22.870Z,63.62
2023-01-19T11:15:55.900Z,63.55
2023-01-19T11:18:30.354Z,64.03
2023-01-19T11:21:03.795Z,64.59
2023-01-19T11:23:47.140Z,64.57
2023-01-19T11:26:27.597Z,64.71
2023-01-19T11:28:59.116Z,64.48
2023-01-19T11:31:29.589Z,64.76
2023-01-19T11:34:01.581Z,64.98
2023-01-19T11:36:37.723Z,64.95
2023-01-19T11:39:29.571Z,65.31
2023-01-19T11:42:04.327Z,65.52
2023-01-19T11:44:44.068Z,65.94
2023-01-19T11:47:18.108Z,66.20
2023-01-19T11:49:51.247Z,66.32
2023-01-19T11:52:35.534Z,65.81
2023-01-19T11:55:16.279Z,66.58
2023-01-19T11:57:52.837Z,66.38
2023-01-19T12:00:26.974Z,66.42
2023-01-19T12:03:01.305Z,66.48
2023-01-19T12:05:33.781Z,66.87
2023-01-19T12:08:08.067Z,67.30
2023-01-19T12:10:42.960Z,67.13
2023-01-19T12:13:21.275Z,67.40
2023-01-19T12:16:01.798Z,67.19
2023-01-19T12:18:35.795Z,68.53
2023-01-19T12:21:06.403Z,68.12
2023-01-19T12:23:43.208Z,68.77
2023-01-19T12:26:25.784Z,68.68
2023-01-19T12:28:59.994Z,68.97
2023-01-19T12:31:30.552Z,69.14
2023-01-19T12:34:21.656Z,69.30
2023-01-19T12:36:52.169Z,68.94
2023-01-19T12:39:23.800Z,69.20
2023-01-19T12:42:14.469Z,69.91
2023-01-19T12:44:46.287Z,70.43
2023-01-19T12:47:16.576Z,70.11
2023-01-19T12:49:51.901Z,69.88
2023-01-19T12:52:52.639Z,70.74
2023-01-19T12:55:25.840Z,70.78
2023-01-19T12:58:09.049Z,70.49
2023-01-19T13:00:44.193Z,70.44
2023-01-19T13:03:20.959Z,69.81
2023-01-19T13:05:54.156Z,70.21
2023-01-19T13:08:25.857Z,70.09
2023-01-19T13:11:03.572Z,70.57
2023-01-19T13:13:33.873Z,70.63
2023-01-19T13:16:26.217Z,70.74
2023-01-19T13:18:59.398Z,70.35
2023-01-19T13:21:38.043Z,70.76
2023-01-19T13:24:09.782Z,70.48
2023-01-19T13:26:52.803Z,70.75
2023-01-19T13:29:28.935Z,70.11
2023-01-19T13:32:04.215Z,70.79
2023-01-19T13:34:43.668Z,70.23
2023-01-19T13:37:40.207Z,70.60
2023-01-19T13:40:17.961Z,70.25
2023-01-19T13:42:49.439Z,70.41
2023-01-19T13:45:19.859Z,70.61
2023-01-19T13:47:51.008Z,70.56
2023-01-19T13:50:22.916Z,69.50
2023-01-19T13:52:55.383Z,69.50
2023-01-19T13:55:26.365Z,69.94
2023-01-19T13:57:56.961Z,69.65
2023-01-19T14:00:28.603Z,66.18
2023-01-19T14:03:03.746Z,63.64
2023-01-19T14:05:35.667Z,62.11
2023-01-19T14:08:15.154Z,60.98
2023-01-19T14:11:03.618Z,60.64
2023-01-19T14:13:36.245Z,59.09
2023-01-19T14:16:07.780Z,58.31
2023-01-19T14:18:38.714Z,57.91
2023-01-19T14:21:20.180Z,56.67
2023-01-19T14:23:52.072Z,56.05
2023-01-19T14:26:40.924Z,56.04
2023-01-19T14:29:24.195Z,55.24
2023-01-19T14:32:06.869Z,54.77
2023-01-19T14:34:40.292Z,53.84
2023-01-19T14:37:21.705Z,52.91
2023-01-19T14:39:55.071Z,52.63
2023-01-19T14:42:28.021Z,51.57
2023-01-19T14:44:59.905Z,51.05
2023-01-19T14:47:32.600Z,50.90
2023-01-19T14:50:09.041Z,50.02
2023-01-19T14:52:41.538Z,49.65
2023-01-19T14:55:34.771Z,49.71
2023-01-19T14:58:10.148Z,49.08
2023-01-19T15:00:41.562Z,48.59
2023-01-19T15:03:12.378Z,48.38
2023-01-19T15:05:44.689Z,48.40
2023-01-19T15:08:35.179Z,49.33
2023-01-19T15:11:11.336Z,50.44
2023-01-19T15:13:43.421Z,49.10
2023-01-19T15:16:13.917Z,48.84
2023-01-19T15:18:44.364Z,48.52
2023-01-19T15:21:20.914Z,48.18
2023-01-19T15:23:51.974Z,48.43
2023-01-19T15:26:23.668Z,48.48
2023-01-19T15:28:54.635Z,48.06
2023-01-19T15:31:25.719Z,47.70
2023-01-19T15:33:56.484Z,48.00
2023-01-19T15:36:26.849Z,47.57
2023-01-19T15:38:58.466Z,47.38
2023-01-19T15:41:31.291Z,47.51
2023-01-19T15:44:01.876Z,47.58
2023-01-19T15:46:32.155Z,46.93
2023-01-19T15:49:02.641Z,46.62
2023-01-19T15:51:33.030Z,46.74
2023-01-19T15:54:03.454Z,46.30
2023-01-19T15:56:34.035Z,46.61
2023-01-19T15:59:04.524Z,46.65
2023-01-19T16:01:36.344Z,46.54
2023-01-19T16:04:08.194Z,46.34
2023-01-19T16:06:38.846Z,46.35
2023-01-19T16:09:09.683Z,46.57
2023-01-19T16:11:40.405Z,46.78
2023-01-19T16:14:11.035Z,46.63
2023-01-19T16:16:41.763Z,46.38
2023-01-19T16:19:15.358Z,46.30
2023-01-19T16:21:45.698Z,46.23
2023-01-19T16:24:16.243Z,46.39
2023-01-19T16:26:46.599Z,46.09
2023-01-19T16:29:17.034Z,45.97
2023-01-19T16:31:47.405Z,45.89
2023-01-19T16:34:17.988Z,46.15
2023-01-19T16:36:48.623Z,46.64
2023-01-19T16:39:19.415Z,46.43
2023-01-19T16:41:49.693Z,46.39
2023-01-19T16:44:20.784Z,46.60
2023-01-19T16:46:53.969Z,46.37
2023-01-19T16:49:28.162Z,46.60
2023-01-19T16:52:18.384Z,46.01
2023-01-19T16:54:48.934Z,46.32
2023-01-19T16:57:19.247Z,46.19
2023-01-19T16:59:49.716Z,46.02
2023-01-19T17:02:20.071Z,45.86
2023-01-19T17:04:50.844Z,45.93
2023-01-19T17:07:21.131Z,46.29
2023-01-19T17:09:51.575Z,46.23
2023-01-19T17:12:22.132Z,45.82
2023-01-19T17:14:52.624Z,46.17
2023-01-19T17:17:23.106Z,45.92
2023-01-19T17:19:53.513Z,46.28
2023-01-19T17:22:23.842Z,46.03
2023-01-19T17:24:54.329Z,46.12
2023-01-19T17:27:24.878Z,46.07
2023-01-19T17:29:55.469Z,46.10
2023-01-19T17:32:25.911Z,45.87
2023-01-19T17:34:56.901Z,46.16
2023-01-19T17:37:27.273Z,45.99
2023-01-19T17:39:57.930Z,45.61
2023-01-19T17:42:28.511Z,46.84
2023-01-19T17:44:59.046Z,48.74
2023-01-19T17:47:29.379Z,50.04
2023-01-19T17:49:59.772Z,51.99
2023-01-19T17:52:30.663Z,52.62
2023-01-19T17:55:01.257Z,54.30
2023-01-19T17:57:31.845Z,52.70
2023-01-19T18:00:02.261Z,51.54
2023-01-19T18:02:42.467Z,50.77
2023-01-19T18:05:14.029Z,49.89
2023-01-19T18:07:44.386Z,49.24
2023-01-19T18:10:15.733Z,48.63
2023-01-19T18:12:46.669Z,48.25
2023-01-19T18:15:18.451Z,48.40
2023-01-19T18:17:48.754Z,47.72
2023-01-19T18:20:19.339Z,47.67
2023-01-19T18:22:49.943Z,47.30
2023-01-19T18:25:21.281Z,47.57
2023-01-19T18:27:51.560Z,47.03
2023-01-19T18:30:22.576Z,47.80
2023-01-19T18:32:53.674Z,49.29
2023-01-19T18:35:24.441Z,51.00
2023-01-19T18:37:56.242Z,52.39
2023-01-19T18:40:28.334Z,54.04
2023-01-19T18:42:58.893Z,55.33
2023-01-19T18:45:29.646Z,55.66
2023-01-19T18:48:02.285Z,54.05
2023-01-19T18:50:33.157Z,52.49
2023-01-19T18:53:03.583Z,51.67
2023-01-19T18:55:34.043Z,51.06
2023-01-19T18:58:06.495Z,50.23
2023-01-19T19:00:37.405Z,50.07
2023-01-19T19:03:11.660Z,49.67
2023-01-19T19:05:42.121Z,49.03
2023-01-19T19:08:12.495Z,48.64
2023-01-19T19:10:43.633Z,48.46
2023-01-19T19:13:14.525Z,48.46
2023-01-19T19:15:45.710Z,48.36
2023-01-19T19:18:17.753Z,50.41
2023-01-19T19:20:48.750Z,51.96
2023-01-19T19:23:19.143Z,53.39
2023-01-19T19:25:49.632Z,55.10
2023-01-19T19:28:20.074Z,55.53
2023-01-19T19:30:53.926Z,54.47
2023-01-19T19:33:24.233Z,53.17
2023-01-19T19:35:58.029Z,52.13
2023-01-19T19:38:29.345Z,51.57
2023-01-19T19:41:01.779Z,50.83
2023-01-19T19:43:33.326Z,50.42
2023-01-19T19:46:08.742Z,50.08
2023-01-19T19:48:39.517Z,49.74
2023-01-19T19:51:18.344Z,49.90
2023-01-19T19:53:51.406Z,51.17
2023-01-19T19:56:23.102Z,52.93
2023-01-19T19:58:55.377Z,54.09
2023-01-19T20:01:29.962Z,54.94
2023-01-19T20:04:06.779Z,55.89
2023-01-19T20:06:41.227Z,57.18
2023-01-19T20:09:14.076Z,55.97
2023-01-19T20:11:45.569Z,54.44
2023-01-19T20:14:17.545Z,53.65
2023-01-19T20:16:48.108Z,52.43
2023-01-19T20:19:19.614Z,51.57
2023-01-19T20:21:50.076Z,50.57
2023-01-19T20:24:22.474Z,52.43
2023-01-19T20:26:53.898Z,53.97
2023-01-19T20:29:24.507Z,55.53
2023-01-19T20:31:56.615Z,55.95
2023-01-19T20:34:29.524Z,56.66
2023-01-19T20:37:02.881Z,57.20
2023-01-19T20:39:37.835Z,57.24
2023-01-19T20:42:12.563Z,57.78
2023-01-19T20:44:43.075Z,56.39
2023-01-19T20:47:13.360Z,55.05
2023-01-19T20:49:43.985Z,53.76
2023-01-19T20:52:14.886Z,53.04
2023-01-19T20:54:45.300Z,51.77
2023-01-19T20:57:15.575Z,52.92
2023-01-19T20:59:46.142Z,54.38
2023-01-19T21:02:18.192Z,55.96
2023-01-19T21:04:48.771Z,56.83
2023-01-19T21:07:19.556Z,57.19
2023-01-19T21:09:50.241Z,57.82
2023-01-19T21:12:22.882Z,58.70
2023-01-19T21:14:53.248Z,57.31
2023-01-19T21:17:23.748Z,55.97
2023-01-19T21:19:54.477Z,54.96
2023-01-19T21:22:24.755Z,53.81
2023-01-19T21:24:55.143Z,52.75
2023-01-19T21:27:25.647Z,53.85
2023-01-19T21:29:56.173Z,55.36
2023-01-19T21:32:26.610Z,56.60
2023-01-19T21:34:57.031Z,57.42
2023-01-19T21:37:27.561Z,57.28
2023-01-19T21:39:58.469Z,58.14
2023-01-19T21:42:28.944Z,57.21
2023-01-19T21:44:59.459Z,59.04
2023-01-19T21:47:30.050Z,57.28
2023-01-19T21:50:00.489Z,56.43
2023-01-19T21:52:31.254Z,55.23
2023-01-19T21:55:02.322Z,54.21
2023-01-19T21:57:32.688Z,54.73
2023-01-19T22:00:03.131Z,56.09
2023-01-19T22:02:39.361Z,57.20
2023-01-19T22:05:10.312Z,57.97
2023-01-19T22:07:40.716Z,57.38
2023-01-19T22:10:12.377Z,58.10
2023-01-19T22:12:42.765Z,58.27
2023-01-19T22:15:13.628Z,57.93
2023-01-19T22:17:44.172Z,58.26
2023-01-19T22:20:15.511Z,60.42
2023-01-19T22:22:45.791Z,58.99
2023-01-19T22:25:16.312Z,57.65
2023-01-19T22:27:46.655Z,56.55
2023-01-19T22:30:17.332Z,55.53
2023-01-19T22:32:47.647Z,56.14
2023-01-19T22:35:18.229Z,57.03
2023-01-19T22:37:48.616Z,57.77
2023-01-19T22:40:19.252Z,58.32
2023-01-19T22:42:50.198Z,57.58
2023-01-19T22:45:20.619Z,58.40
2023-01-19T22:47:50.892Z,58.10
2023-01-19T22:50:21.284Z,58.26
2023-01-19T22:52:51.588Z,58.37
2023-01-19T22:55:22.109Z,59.27
2023-01-19T22:57:52.795Z,60.06
2023-01-19T23:00:23.419Z,58.28
2023-01-19T23:02:54.061Z,58.55
2023-01-19T23:05:25.094Z,58.80
2023-01-19T23:07:55.498Z,59.12
2023-01-19T23:10:26.209Z,59.63
2023-01-19T23:12:57.079Z,59.84
2023-01-19T23:15:27.539Z,59.82
2023-01-19T23:17:58.169Z,60.28
2023-01-19T23:20:28.626Z,60.32
2023-01-19T23:22:58.910Z,60.42
2023-01-19T23:25:29.405Z,61.03
2023-01-19T23:27:59.849Z,61.29
2023-01-19T23:30:30.892Z,61.16
2023-01-19T23:33:01.150Z,61.26
2023-01-19T23:35:31.589Z,61.35
2023-01-19T23:38:02.009Z,61.59
2023-01-19T23:40:33.072Z,61.40
2023-01-19T23:43:03.591Z,61.50
2023-01-19T23:45:36.108Z,61.52
2023-01-19T23:48:06.523Z,61.87
2023-01-19T23:50:40.711Z,61.93
2023-01-19T23:53:11.150Z,61.66
2023-01-19T23:55:43.316Z,61.69
2023-01-19T23:58:13.656Z,61.80
